Flight Track Log - Related Links

Times and Time Zones

All times are in EDT time to prevent confusion due to time zone crossing. See the C-GRFO flight status page for this flight to view local times or setup timezone preferences in your user account.

Time Position Orientation Groundspeed Altitude Reporting Facility
EDT Latitude Longitude Course Direction KTS MPH feet Rate Location/Type
Thu 04:45:39 PM 24.1808 -81.1792 North 438 504 20,400  Level Miami Center
Thu 04:46:39 PM 24.2942 -81.1603 North 420 483 21,600 700 Climbing Miami Center
Thu 04:47:39 PM 24.4117 -81.1394 342° North 420 483 21,800 800 Climbing Miami Center
Thu 04:48:39 PM 24.5275 -81.1797 336° Northwest 420 483 23,200 2,050 Climbing Miami Center
Thu 04:49:39 PM 24.6306 -81.2292 348° North 408 470 25,900 1,900 Climbing Miami Center
Thu 04:50:39 PM 24.7425 -81.2558 North 402 463 27,000 1,050 Climbing Miami Center
Thu 04:51:39 PM 24.8578 -81.2417 358° North 392 451 28,000 1,000 Climbing Miami Center
Thu 04:52:39 PM 24.9808 -81.2461 357° North 413 475 29,000 1,100 Climbing Miami Center
Thu 04:53:39 PM 25.1017 -81.2528 359° North 429 494 30,200 1,050 Climbing Miami Center
Thu 04:54:39 PM 25.2250 -81.2550 North 434 499 31,100 750 Climbing Miami Center
Thu 04:55:39 PM 25.3272 -81.2539 358° North 445 512 31,700 750 Climbing Miami Center
Thu 04:56:39 PM 25.4628 -81.2589 359° North 445 512 32,600 850 Climbing Miami Center
Thu 04:57:39 PM 25.5922 -81.2614 360° North 445 512 33,400 900 Climbing Miami Center
Thu 04:58:39 PM 25.7197 -81.2614 North 450 518 34,400 800 Climbing Miami Center
Thu 04:59:39 PM 25.8450 -81.2589 354° North 455 524 35,000 550 Climbing Miami Center
Thu 05:00:39 PM 25.9761 -81.2731 356° North 455 524 35,500 600 Climbing Miami Center
Thu 05:01:39 PM 26.1033 -81.2825 North 455 524 36,200 800 Climbing Miami Center
Thu 05:02:39 PM 26.2286 -81.2800 358° North 455 524 37,100 650 Climbing Miami Center
Thu 05:03:39 PM 26.3581 -81.2850 354° North 455 524 37,500 350 Climbing Miami Center
Thu 05:04:39 PM 26.4850 -81.2989 357° North 455 524 37,800 400 Climbing Miami Center
Thu 05:05:39 PM 26.6100 -81.3061 357° North 455 524 38,300 600 Climbing Miami Center
Thu 05:06:39 PM 26.7539 -81.3139 357° North 460 529 39,000 347 Climbing Miami Center
Thu 05:07:40 PM 26.8831 -81.3211 348° North 460 529 39,000  Level Miami Center
Thu 05:08:39 PM 27.0011 -81.3489 North 434 499 39,000  Level Miami Center
Thu 05:09:39 PM 27.1497 -81.3358 358° North 476 548 39,000  Level Miami Center
Thu 05:10:39 PM 27.2894 -81.3414 357° North 483 556 39,000  Level Miami Center
Thu 05:11:39 PM 27.4269 -81.3492 356° North 488 562 39,000  Level Miami Center
Thu 05:12:39 PM 27.5581 -81.3589 359° North 481 554 39,000  Level Miami Center
Thu 05:13:39 PM 27.6917 -81.3617 355° North 475 547 39,000  Level Miami Center
Thu 05:14:39 PM 27.8247 -81.3742 359° North 475 547 39,000  Level Miami Center
Thu 05:15:39 PM 27.9458 -81.3764 357° North 475 547 39,000  Level Miami Center
Thu 05:16:39 PM 28.0917 -81.3847 357° North 475 547 39,000  Level Miami Center
Thu 05:18:34 PM 28.3292 -81.3997 357° North 477 549 39,000  Level Jacksonville Center
Thu 05:19:34 PM 28.4606 -81.4075 358° North 477 549 39,000 -50 Level Jacksonville Center
Thu 05:20:34 PM 28.6006 -81.4122 357° North 467 537 38,900  Descending Jacksonville Center
Thu 05:21:34 PM 28.7278 -81.4200 356° North 462 532 39,000 50 Climbing Jacksonville Center
Thu 05:22:34 PM 28.8553 -81.4300 358° North 457 526 39,000  Level Jacksonville Center
Thu 05:23:34 PM 28.9828 -81.4353 357° North 457 526 39,000 300 Level Jacksonville Center
Thu 05:24:34 PM 29.1081 -81.4428 358° North 457 526 39,600 650 Climbing Jacksonville Center
Thu 05:25:34 PM 29.2292 -81.4483 360° North 450 518 40,300 600 Climbing Jacksonville Center
Thu 05:26:34 PM 29.3503 -81.4489 13° North 437 503 40,800 350 Climbing Jacksonville Center
Thu 05:27:34 PM 29.4731 -81.4158 North 437 503 41,000 100 Climbing Jacksonville Center
Thu 05:28:34 PM 29.5939 -81.3997 North 437 503 41,000  Level Jacksonville Center
Thu 05:29:34 PM 29.7169 -81.3908 North 442 509 41,000  Level Jacksonville Center
Thu 05:30:33 PM 29.8419 -81.3722 North 442 509 41,000  Level Jacksonville Center
Thu 05:31:33 PM 29.9669 -81.3533 North 442 509 41,000  Level Jacksonville Center
Thu 05:32:34 PM 30.0964 -81.3392 North 442 509 41,000  Level Jacksonville Center
Thu 05:33:33 PM 30.2214 -81.3181 North 453 521 41,000  Level Jacksonville Center
Thu 05:34:34 PM 30.3403 -81.3064 North 461 531 41,000  Level Jacksonville Center
Thu 05:35:33 PM 30.4653 -81.2850 North 461 531 41,000  Level Jacksonville Center
Thu 05:36:34 PM 30.5922 -81.2683 North 461 531 41,000  Level Jacksonville Center
Thu 05:37:34 PM 30.7236 -81.2542 North 461 531 41,000  Level Jacksonville Center
Thu 05:38:33 PM 30.8486 -81.2328 North 461 531 41,000  Level Jacksonville Center
Thu 05:39:34 PM 30.9739 -81.2183 North 456 525 41,000  Level Jacksonville Center
Thu 05:40:34 PM 31.1031 -81.2014 North 456 525 41,000  Level Jacksonville Center
Thu 05:41:34 PM 31.2258 -81.1847 North 456 525 41,000  Level Jacksonville Center
Thu 05:42:33 PM 31.3633 -81.1650 22° Northeast 456 525 41,000  Level Jacksonville Center
Thu 05:43:33 PM 31.4797 -81.1094 35° Northeast 448 516 41,000  Level Jacksonville Center
Thu 05:44:33 PM 31.5744 -81.0319 33° Northeast 448 516 41,000  Level Jacksonville Center
Thu 05:45:34 PM 31.6903 -80.9442 29° Northeast 454 522 41,000  Level Jacksonville Center
Thu 05:46:34 PM 31.7894 -80.8786 32° Northeast 454 522 41,000  Level Jacksonville Center
Thu 05:47:33 PM 31.9069 -80.7928 32° Northeast 449 517 41,000  Level Jacksonville Center
Thu 05:48:34 PM 32.0161 -80.7119 30° Northeast 454 522 41,000  Level Jacksonville Center
Thu 05:49:34 PM 32.1172 -80.6433 32° Northeast 459 528 41,000  Level Jacksonville Center
Thu 05:50:34 PM 32.2369 -80.5544 32° Northeast 464 534 41,000  Level Jacksonville Center
Thu 05:51:34 PM 32.3458 -80.4753 31° Northeast 464 534 41,000  Level Jacksonville Center
Thu 05:52:34 PM 32.4550 -80.3961 32° Northeast 464 534 41,000  Level Jacksonville Center
Thu 05:53:34 PM 32.5619 -80.3167 31° Northeast 459 528 41,000  Level Jacksonville Center
Thu 05:54:34 PM 32.6731 -80.2372 35° Northeast 459 528 41,000 -50 Level Jacksonville Center
Thu 05:55:34 PM 32.7778 -80.1500 32° Northeast 459 528 40,900 -50 Descending Jacksonville Center
Thu 05:56:34 PM 32.8844 -80.0703 32° Northeast 459 528 40,900 50 Level Jacksonville Center
Thu 05:57:34 PM 32.9872 -79.9925 33° Northeast 459 528 41,000 50 Climbing Jacksonville Center
Thu 05:58:34 PM 33.0936 -79.9097 32° Northeast 459 528 41,000  Level Jacksonville Center
Thu 05:59:34 PM 33.2025 -79.8292 33° Northeast 459 528 41,000  Level Jacksonville Center
Thu 06:00:34 PM 33.3089 -79.7461 28° Northeast 459 528 41,000  Level Jacksonville Center
Thu 06:01:34 PM 33.4219 -79.6750 11° North 459 528 41,000  Level Jacksonville Center
Thu 06:02:34 PM 33.5442 -79.6456 30° Northeast 447 514 41,000  Level Jacksonville Center
Thu 06:03:34 PM 33.6550 -79.5692 30° Northeast 442 509 41,000 -50 Level Jacksonville Center
Thu 06:04:34 PM 33.7636 -79.4925 23° Northeast 442 509 40,900  Descending Jacksonville Center
Thu 06:05:34 PM 33.8786 -79.4331 23° Northeast 447 514 41,000 50 Climbing Jacksonville Center
Thu 06:06:34 PM 34.0042 -79.3681 25° Northeast 442 509 41,000  Level Jacksonville Center
Thu 06:08:21 PM 34.1947 -79.2625 26° Northeast 461 531 41,000  Level Washington Center
Thu 06:09:21 PM 34.3075 -79.1947 26° Northeast 454 522 41,000  Level Washington Center
Thu 06:10:22 PM 34.4200 -79.1292 24° Northeast 454 522 41,000  Level Washington Center
Thu 06:11:22 PM 34.5386 -79.0661 26° Northeast 454 522 41,000  Level Washington Center
Thu 06:12:23 PM 34.6492 -79.0003 25° Northeast 447 514 41,000  Level Washington Center
Thu 06:13:21 PM 34.7783 -78.9272 25° Northeast 447 514 41,000  Level Washington Center
Thu 06:14:22 PM 34.8928 -78.8636 25° Northeast 447 514 41,000  Level Washington Center
Thu 06:15:22 PM 35.0072 -78.7997 26° Northeast 447 514 41,000  Level Washington Center
Thu 06:16:21 PM 35.1217 -78.7306 26° Northeast 447 514 41,000  Level Washington Center
Thu 06:17:22 PM 35.2342 -78.6639 24° Northeast 442 509 41,000  Level Washington Center
Thu 06:18:22 PM 35.3525 -78.5994 27° Northeast 442 509 41,000  Level Washington Center
Thu 06:19:23 PM 35.4669 -78.5275 24° Northeast 457 526 41,000  Level Washington Center
Thu 06:20:21 PM 35.5833 -78.4628 23° Northeast 463 533 41,000  Level Washington Center
Thu 06:21:22 PM 35.7081 -78.3981 27° Northeast 472 543 41,000  Level Washington Center
Thu 06:22:23 PM 35.8222 -78.3253 24° Northeast 465 535 41,000  Level Washington Center
Thu 06:23:23 PM 35.9386 -78.2600 25° Northeast 452 520 41,000  Level Washington Center
Thu 06:24:23 PM 36.0547 -78.1919 25° Northeast 458 527 41,000  Level Washington Center
Thu 06:25:21 PM 36.1753 -78.1214 26° Northeast 466 536 41,000  Level Washington Center
Thu 06:33:15 PM 37.0737 -77.5616 26° Northeast  Level FlightAware Approximate
Thu 06:34:15 PM 37.1881 -77.4921 26° Northeast  Level FlightAware Approximate
Thu 06:35:15 PM 37.3025 -77.4223 26° Northeast  Level FlightAware Approximate
Thu 06:36:15 PM 37.4169 -77.3523 26° Northeast  Level FlightAware Approximate
Thu 06:37:15 PM 37.5312 -77.2821 26° Northeast  Level FlightAware Approximate
Thu 06:38:15 PM 37.6455 -77.2117 28° Northeast  Level FlightAware Approximate
Thu 06:39:15 PM 37.7574 -77.1355 26° Northeast  Level FlightAware Approximate
Thu 06:40:15 PM 37.8716 -77.0649 26° Northeast  Level FlightAware Approximate
Thu 06:41:15 PM 37.9859 -76.9940 26° Northeast  Level FlightAware Approximate
Thu 06:42:15 PM 38.1000 -76.9229 24° Northeast  Level FlightAware Approximate
Thu 06:43:15 PM 38.2160 -76.8567 26° Northeast  Level FlightAware Approximate
Thu 06:44:15 PM 38.3300 -76.7849 26° Northeast  Level FlightAware Approximate
Thu 06:45:15 PM 38.4439 -76.7127 26° Northeast  Level FlightAware Approximate
Thu 06:46:15 PM 38.5578 -76.6404 26° Northeast  Level FlightAware Approximate
Thu 06:47:15 PM 38.6716 -76.5678 27° Northeast  Level FlightAware Approximate
Thu 06:48:15 PM 38.7854 -76.4950 27° Northeast  Level FlightAware Approximate
Thu 06:49:15 PM 38.8991 -76.4220 27° Northeast  Level FlightAware Approximate
Thu 06:50:15 PM 39.0128 -76.3487 27° Northeast  Level FlightAware Approximate
Thu 06:51:15 PM 39.1264 -76.2753 23° Northeast  Level FlightAware Approximate
Thu 06:52:15 PM 39.2431 -76.2101 27° Northeast  Level FlightAware Approximate
Thu 06:53:15 PM 39.3566 -76.1361 27° Northeast  Level FlightAware Approximate
Thu 06:54:15 PM 39.4701 -76.0618 27° Northeast  Level FlightAware Approximate
Thu 06:55:15 PM 39.5835 -75.9873 30° Northeast  Level FlightAware Approximate
Thu 06:56:15 PM 39.6935 -75.9046 26° Northeast  Level FlightAware Approximate
Thu 06:57:15 PM 39.8078 -75.8323 26° Northeast  Level FlightAware Approximate
Thu 06:58:15 PM 39.9221 -75.7598 26° Northeast  Level FlightAware Approximate
Thu 06:59:15 PM 40.0364 -75.6870 26° Northeast  Level FlightAware Approximate
Thu 07:00:15 PM 40.1506 -75.6139 26° Northeast  Level FlightAware Approximate
Thu 07:01:15 PM 40.2648 -75.5406 32° Northeast  Level FlightAware Approximate
Thu 07:02:15 PM 40.3716 -75.4523 21° North  Level FlightAware Approximate
Thu 07:03:15 PM 40.4903 -75.3926 21° North  Level FlightAware Approximate
Thu 07:04:15 PM 40.6091 -75.3327 21° North  Level FlightAware Approximate
Thu 07:05:15 PM 40.7278 -75.2726 21° North  Level FlightAware Approximate
Thu 07:06:15 PM 40.8465 -75.2123 21° North  Level FlightAware Approximate
Thu 07:07:15 PM 40.9651 -75.1518 60° Northeast  Level FlightAware Approximate
Thu 07:08:15 PM 41.0280 -75.0086 28° Northeast  Level FlightAware Approximate
Thu 07:09:15 PM 41.1401 -74.9289 17° North  Level FlightAware Approximate
Thu 07:10:15 PM 41.2616 -74.8791 17° North  Level FlightAware Approximate
Thu 07:11:15 PM 41.3831 -74.8292 16° North  Level FlightAware Approximate
Thu 07:12:15 PM 41.5054 -74.7829 16° North  Level FlightAware Approximate
Thu 07:13:15 PM 41.6277 -74.7363 13° North  Level FlightAware Approximate
Thu 07:14:15 PM 41.7514 -74.6967 13° North  Level FlightAware Approximate
Thu 07:15:15 PM 41.8750 -74.6569 14° North  Level FlightAware Approximate
Thu 07:16:15 PM 41.9987 -74.6169 11° North  Level FlightAware Approximate
Thu 07:17:15 PM 42.1237 -74.5856 11° North  Level FlightAware Approximate
Thu 07:18:15 PM 42.2487 -74.5541 11° North  Level FlightAware Approximate
Thu 07:19:15 PM 42.3737 -74.5226 11° North  Level FlightAware Approximate
Thu 07:20:15 PM 42.4987 -74.4909 11° North  Level FlightAware Approximate
Thu 07:21:15 PM 42.6237 -74.4591 11° North  Level FlightAware Approximate
Thu 07:22:15 PM 42.7486 -74.4271 11° North  Level FlightAware Approximate
Thu 07:23:15 PM 42.8736 -74.3951 11° North  Level FlightAware Approximate
Thu 07:24:15 PM 42.9986 -74.3629 11° North  Level FlightAware Approximate
Thu 07:25:15 PM 43.1235 -74.3305 11° North  Level FlightAware Approximate
Thu 07:26:15 PM 43.2485 -74.2981 11° North  Level FlightAware Approximate
Thu 07:27:15 PM 43.3734 -74.2655 11° North  Level FlightAware Approximate
Thu 07:28:15 PM 43.4983 -74.2327 11° North  Level FlightAware Approximate
Thu 07:29:15 PM 43.6232 -74.1999 11° North  Level FlightAware Approximate
Thu 07:30:15 PM 43.7481 -74.1669 11° North  Level FlightAware Approximate
Thu 07:31:15 PM 43.8730 -74.1337 11° North  Level FlightAware Approximate
Thu 07:32:15 PM 43.9979 -74.1005 11° North  Level FlightAware Approximate
Thu 07:33:15 PM 44.1227 -74.0670 11° North  Level FlightAware Approximate
Thu 07:34:15 PM 44.2476 -74.0335 11° North  Level FlightAware Approximate
Thu 07:35:15 PM 44.3725 -73.9998 11° North  Level FlightAware Approximate
Thu 07:36:15 PM 44.4973 -73.9659 11° North  Level FlightAware Approximate
Thu 07:37:15 PM 44.6221 -73.9319 11° North  Level FlightAware Approximate
Thu 07:38:15 PM 44.7469 -73.8978 11° North  Level FlightAware Approximate
Thu 07:39:15 PM 44.8718 -73.8635 11° North  Level FlightAware Approximate
Thu 07:40:15 PM 44.9966 -73.8290 11° North  Level FlightAware Approximate
Thu 07:41:15 PM 45.1213 -73.7945 11° North  Level FlightAware Approximate
Thu 07:42:15 PM 45.2461 -73.7597 22° Northeast  Level FlightAware Approximate
Thu 07:43:15 PM 45.3497 -73.6999 349° North  Level FlightAware Approximate
Thu 07:44:15 PM 45.4667 -73.7333 284° West  Level FlightAware Approximate
Thu 07:45:15 PM 45.4968 -73.9095 104° East  Level Estimated
Thu 07:46:15 PM 45.4667 -73.7333 284° West  Level Estimated
Thu 07:47:15 PM 45.4968 -73.9095 104° East  Level Estimated
Thu 07:48:15 PM 45.4667 -73.7333 284° West  Level Estimated
Thu 07:49:15 PM 45.4968 -73.9095 104° East  Level Estimated
Thu 07:50:15 PM 45.4667 -73.7333 284° West  Level FlightAware Approximate
Thu 07:51:15 PM 45.4968 -73.9095 104° East  Level Estimated
Thu 07:52:15 PM 45.4667 -73.7333 284° West  Level FlightAware Approximate
Thu 07:53:15 PM 45.4968 -73.9095 104° East  Level Estimated
Thu 07:54:15 PM 45.4667 -73.7333 284° West  Level FlightAware Approximate
Thu 07:55:15 PM 45.4968 -73.9095 104° East  Level Estimated
Thu 07:56:15 PM 45.4667 -73.7333 284° West  Level FlightAware Approximate
Thu 07:57:15 PM 45.4968 -73.9095 104° East  Level Estimated
Thu 07:58:15 PM 45.4667 -73.7333 284° West  Level FlightAware Approximate
Thu 07:59:15 PM 45.4968 -73.9095 104° East  Level Estimated
Thu 08:00:15 PM 45.4667 -73.7333 284° West  Level FlightAware Approximate
Thu 08:01:15 PM 45.4968 -73.9095 104° East  Level Estimated
Thu 08:02:15 PM 45.4667 -73.7333 284° West  Level FlightAware Approximate
Thu 08:03:15 PM 45.4968 -73.9095 104° East  Level Estimated
Thu 08:04:15 PM 45.4667 -73.7333 284° West  Level FlightAware Approximate
Thu 08:05:15 PM 45.4968 -73.9095 284° West  Level Estimated

Login

Don't have an account? Register now (free) for customized features, flight alerts, and more!